sensor_id;sensor_type;location;lat;lon;timestamp;noise_LAeq;noise_LA_min;noise_LA_max;noise_LA01;noise_LA95
58251;Laerm;51449;51.676;5.812;2022-10-16T00:00:23;53.36;35.44;67.60;;
58251;Laerm;51449;51.676;5.812;2022-10-16T00:02:45;53.03;35.85;69.51;;
58251;Laerm;51449;51.676;5.812;2022-10-16T00:05:07;53.76;36.78;66.86;;
58251;Laerm;51449;51.676;5.812;2022-10-16T00:07:29;55.17;36.90;69.65;;
58251;Laerm;51449;51.676;5.812;2022-10-16T00:09:51;49.67;35.44;65.17;;
58251;Laerm;51449;51.676;5.812;2022-10-16T00:12:12;51.18;37.47;66.39;;
58251;Laerm;51449;51.676;5.812;2022-10-16T00:14:34;54.55;38.51;67.16;;
58251;Laerm;51449;51.676;5.812;2022-10-16T00:16:56;55.35;38.72;68.87;;
58251;Laerm;51449;51.676;5.812;2022-10-16T00:19:18;50.64;36.63;64.63;;
58251;Laerm;51449;51.676;5.812;2022-10-16T00:21:40;54.96;40.36;67.74;;
58251;Laerm;51449;51.676;5.812;2022-10-16T00:24:06;54.53;36.29;68.48;;
58251;Laerm;51449;51.676;5.812;2022-10-16T00:26:32;47.25;35.47;62.88;;
58251;Laerm;51449;51.676;5.812;2022-10-16T00:28:54;47.82;35.26;63.60;;
58251;Laerm;51449;51.676;5.812;2022-10-16T00:31:20;50.28;35.88;67.75;;
58251;Laerm;51449;51.676;5.812;2022-10-16T00:33:43;42.18;34.91;57.31;;
58251;Laerm;51449;51.676;5.812;2022-10-16T00:36:07;51.24;35.92;64.21;;
58251;Laerm;51449;51.676;5.812;2022-10-16T00:38:30;52.76;35.80;71.69;;
58251;Laerm;51449;51.676;5.812;2022-10-16T00:40:52;56.94;37.22;79.56;;
58251;Laerm;51449;51.676;5.812;2022-10-16T00:43:43;49.95;35.65;64.65;;
58251;Laerm;51449;51.676;5.812;2022-10-16T00:46:23;41.80;34.48;52.43;;
58251;Laerm;51449;51.676;5.812;2022-10-16T00:49:02;50.46;34.55;67.51;;
58251;Laerm;51449;51.676;5.812;2022-10-16T00:51:38;55.32;37.41;81.82;;
58251;Laerm;51449;51.676;5.812;2022-10-16T00:54:04;51.98;38.19;75.82;;
58251;Laerm;51449;51.676;5.812;2022-10-16T00:56:29;41.87;36.01;52.66;;
58251;Laerm;51449;51.676;5.812;2022-10-16T00:58:51;45.85;38.60;61.35;;
58251;Laerm;51449;51.676;5.812;2022-10-16T01:01:13;47.61;35.87;68.50;;
58251;Laerm;51449;51.676;5.812;2022-10-16T01:03:37;55.59;34.62;83.19;;
58251;Laerm;51449;51.676;5.812;2022-10-16T01:06:12;52.62;37.55;71.59;;
58251;Laerm;51449;51.676;5.812;2022-10-16T01:09:03;51.72;38.73;65.49;;
58251;Laerm;51449;51.676;5.812;2022-10-16T01:12:15;54.96;38.57;73.94;;
58251;Laerm;51449;51.676;5.812;2022-10-16T01:15:02;45.51;37.82;60.75;;
58251;Laerm;51449;51.676;5.812;2022-10-16T01:20:56;50.92;36.92;65.13;;
58251;Laerm;51449;51.676;5.812;2022-10-16T01:29:01;47.54;35.68;64.58;;
58251;Laerm;51449;51.676;5.812;2022-10-16T01:31:31;48.55;36.79;64.59;;
58251;Laerm;51449;51.676;5.812;2022-10-16T01:34:05;41.23;34.23;54.75;;
58251;Laerm;51449;51.676;5.812;2022-10-16T01:36:41;41.58;34.17;56.61;;
58251;Laerm;51449;51.676;5.812;2022-10-16T01:39:09;47.71;35.60;65.45;;
58251;Laerm;51449;51.676;5.812;2022-10-16T01:41:39;50.44;35.96;68.50;;
58251;Laerm;51449;51.676;5.812;2022-10-16T01:44:18;42.40;35.07;60.87;;
58251;Laerm;51449;51.676;5.812;2022-10-16T01:46:46;51.28;34.51;69.42;;
58251;Laerm;51449;51.676;5.812;2022-10-16T01:49:11;47.62;34.70;67.08;;
58251;Laerm;51449;51.676;5.812;2022-10-16T01:51:35;43.49;36.68;55.27;;
58251;Laerm;51449;51.676;5.812;2022-10-16T01:54:00;48.92;36.40;68.00;;
58251;Laerm;51449;51.676;5.812;2022-10-16T01:56:25;52.28;39.02;67.74;;
58251;Laerm;51449;51.676;5.812;2022-10-16T01:59:06;51.85;37.31;68.16;;
58251;Laerm;51449;51.676;5.812;2022-10-16T02:01:31;45.53;36.25;60.39;;
58251;Laerm;51449;51.676;5.812;2022-10-16T02:04:01;45.41;37.48;55.40;;
58251;Laerm;51449;51.676;5.812;2022-10-16T02:06:25;41.59;35.82;49.48;;
58251;Laerm;51449;51.676;5.812;2022-10-16T02:08:47;50.81;36.31;70.02;;
58251;Laerm;51449;51.676;5.812;2022-10-16T02:11:10;41.17;34.53;52.14;;
58251;Laerm;51449;51.676;5.812;2022-10-16T02:13:39;42.80;35.69;63.08;;
58251;Laerm;51449;51.676;5.812;2022-10-16T02:16:06;44.92;38.64;57.73;;
58251;Laerm;51449;51.676;5.812;2022-10-16T02:18:29;50.87;36.70;64.04;;
58251;Laerm;51449;51.676;5.812;2022-10-16T02:24:02;41.39;36.63;49.03;;
58251;Laerm;51449;51.676;5.812;2022-10-16T02:26:37;54.89;38.37;69.18;;
58251;Laerm;51449;51.676;5.812;2022-10-16T02:29:08;53.58;37.97;70.01;;
58251;Laerm;51449;51.676;5.812;2022-10-16T02:31:35;46.18;36.56;60.53;;
58251;Laerm;51449;51.676;5.812;2022-10-16T02:34:02;49.60;38.30;66.40;;
58251;Laerm;51449;51.676;5.812;2022-10-16T02:36:27;44.37;37.99;51.29;;
58251;Laerm;51449;51.676;5.812;2022-10-16T02:38:49;44.15;36.73;50.91;;
58251;Laerm;51449;51.676;5.812;2022-10-16T02:41:11;45.10;36.85;52.88;;
58251;Laerm;51449;51.676;5.812;2022-10-16T02:43:33;43.93;36.64;50.89;;
58251;Laerm;51449;51.676;5.812;2022-10-16T02:45:56;46.92;35.32;63.06;;
58251;Laerm;51449;51.676;5.812;2022-10-16T02:48:17;42.34;35.73;49.21;;
58251;Laerm;51449;51.676;5.812;2022-10-16T02:50:39;39.57;33.58;49.19;;
58251;Laerm;51449;51.676;5.812;2022-10-16T02:53:01;42.29;35.95;46.91;;
58251;Laerm;51449;51.676;5.812;2022-10-16T02:55:23;54.43;34.59;70.66;;
58251;Laerm;51449;51.676;5.812;2022-10-16T02:57:45;51.27;33.92;68.71;;
58251;Laerm;51449;51.676;5.812;2022-10-16T03:00:11;37.47;33.79;49.80;;
58251;Laerm;51449;51.676;5.812;2022-10-16T03:02:33;39.05;33.40;52.85;;
58251;Laerm;51449;51.676;5.812;2022-10-16T03:04:55;47.72;33.34;64.46;;
58251;Laerm;51449;51.676;5.812;2022-10-16T03:07:17;36.99;32.86;43.33;;
58251;Laerm;51449;51.676;5.812;2022-10-16T03:09:39;38.39;31.99;46.44;;
58251;Laerm;51449;51.676;5.812;2022-10-16T03:12:01;35.20;31.39;42.84;;
58251;Laerm;51449;51.676;5.812;2022-10-16T03:14:23;37.17;31.53;43.92;;
58251;Laerm;51449;51.676;5.812;2022-10-16T03:16:45;44.58;32.72;59.39;;
58251;Laerm;51449;51.676;5.812;2022-10-16T03:19:06;52.57;32.80;66.94;;
58251;Laerm;51449;51.676;5.812;2022-10-16T03:21:28;38.12;33.38;43.94;;
58251;Laerm;51449;51.676;5.812;2022-10-16T03:23:51;42.03;34.88;49.79;;
58251;Laerm;51449;51.676;5.812;2022-10-16T03:26:12;53.75;32.19;69.02;;
58251;Laerm;51449;51.676;5.812;2022-10-16T03:28:34;49.94;33.29;65.35;;
58251;Laerm;51449;51.676;5.812;2022-10-16T03:30:56;44.35;35.58;62.81;;
58251;Laerm;51449;51.676;5.812;2022-10-16T03:33:18;51.60;34.62;67.62;;
58251;Laerm;51449;51.676;5.812;2022-10-16T03:35:40;36.18;33.53;43.46;;
58251;Laerm;51449;51.676;5.812;2022-10-16T03:38:02;38.54;34.67;46.98;;
58251;Laerm;51449;51.676;5.812;2022-10-16T03:40:24;47.21;34.91;65.07;;
58251;Laerm;51449;51.676;5.812;2022-10-16T03:42:46;55.51;35.04;69.62;;
58251;Laerm;51449;51.676;5.812;2022-10-16T03:45:08;42.75;36.15;51.63;;
58251;Laerm;51449;51.676;5.812;2022-10-16T03:47:30;40.26;34.46;47.16;;
58251;Laerm;51449;51.676;5.812;2022-10-16T03:49:54;53.88;33.61;70.41;;
58251;Laerm;51449;51.676;5.812;2022-10-16T03:52:16;45.39;35.02;54.61;;
58251;Laerm;51449;51.676;5.812;2022-10-16T03:54:39;49.63;35.30;65.49;;
58251;Laerm;51449;51.676;5.812;2022-10-16T03:57:01;56.03;38.64;71.86;;
58251;Laerm;51449;51.676;5.812;2022-10-16T03:59:23;46.88;34.61;64.04;;
58251;Laerm;51449;51.676;5.812;2022-10-16T04:01:45;43.60;36.57;53.03;;
58251;Laerm;51449;51.676;5.812;2022-10-16T04:04:06;40.70;35.30;53.81;;
58251;Laerm;51449;51.676;5.812;2022-10-16T04:06:28;39.30;35.13;43.92;;
58251;Laerm;51449;51.676;5.812;2022-10-16T04:08:50;51.14;34.89;68.07;;
58251;Laerm;51449;51.676;5.812;2022-10-16T04:11:12;51.78;37.33;65.34;;
58251;Laerm;51449;51.676;5.812;2022-10-16T04:13:34;56.48;38.51;72.38;;
58251;Laerm;51449;51.676;5.812;2022-10-16T04:15:56;43.15;36.59;51.34;;
58251;Laerm;51449;51.676;5.812;2022-10-16T04:18:18;53.77;36.86;68.10;;
58251;Laerm;51449;51.676;5.812;2022-10-16T04:20:40;53.76;36.49;69.75;;
58251;Laerm;51449;51.676;5.812;2022-10-16T04:23:02;41.03;34.50;49.19;;
58251;Laerm;51449;51.676;5.812;2022-10-16T04:25:24;55.72;36.67;72.66;;
58251;Laerm;51449;51.676;5.812;2022-10-16T04:27:46;50.71;36.61;68.47;;
58251;Laerm;51449;51.676;5.812;2022-10-16T04:30:08;53.07;38.46;66.84;;
58251;Laerm;51449;51.676;5.812;2022-10-16T04:32:30;51.85;39.13;70.58;;
58251;Laerm;51449;51.676;5.812;2022-10-16T04:34:53;53.31;37.27;66.38;;
58251;Laerm;51449;51.676;5.812;2022-10-16T04:37:15;51.11;38.47;66.86;;
58251;Laerm;51449;51.676;5.812;2022-10-16T04:39:36;53.03;36.70;65.68;;
58251;Laerm;51449;51.676;5.812;2022-10-16T04:41:58;51.71;37.51;66.46;;
58251;Laerm;51449;51.676;5.812;2022-10-16T04:44:20;54.50;37.76;69.02;;
58251;Laerm;51449;51.676;5.812;2022-10-16T04:46:42;56.27;38.14;68.37;;
58251;Laerm;51449;51.676;5.812;2022-10-16T04:49:04;62.60;36.59;80.70;;
58251;Laerm;51449;51.676;5.812;2022-10-16T04:51:26;47.35;37.70;63.78;;
58251;Laerm;51449;51.676;5.812;2022-10-16T04:53:49;49.79;34.83;66.88;;
58251;Laerm;51449;51.676;5.812;2022-10-16T04:56:11;52.24;36.33;67.72;;
58251;Laerm;51449;51.676;5.812;2022-10-16T04:58:32;49.02;35.40;64.49;;
58251;Laerm;51449;51.676;5.812;2022-10-16T05:00:54;55.57;37.83;68.93;;
58251;Laerm;51449;51.676;5.812;2022-10-16T05:03:16;56.97;36.60;68.94;;
58251;Laerm;51449;51.676;5.812;2022-10-16T05:05:43;49.78;36.08;64.12;;
58251;Laerm;51449;51.676;5.812;2022-10-16T05:08:06;46.73;37.23;63.10;;
58251;Laerm;51449;51.676;5.812;2022-10-16T05:10:28;48.53;35.48;66.18;;
58251;Laerm;51449;51.676;5.812;2022-10-16T05:12:50;51.92;37.73;68.71;;
58251;Laerm;51449;51.676;5.812;2022-10-16T05:15:12;55.71;35.98;72.32;;
58251;Laerm;51449;51.676;5.812;2022-10-16T05:17:34;52.84;36.97;65.73;;
58251;Laerm;51449;51.676;5.812;2022-10-16T05:19:58;52.89;36.14;66.84;;
58251;Laerm;51449;51.676;5.812;2022-10-16T05:22:20;57.54;38.63;72.33;;
58251;Laerm;51449;51.676;5.812;2022-10-16T05:24:42;56.87;39.27;71.60;;
58251;Laerm;51449;51.676;5.812;2022-10-16T05:27:04;51.10;39.30;67.67;;
58251;Laerm;51449;51.676;5.812;2022-10-16T05:29:25;51.99;37.81;68.64;;
58251;Laerm;51449;51.676;5.812;2022-10-16T05:31:53;54.73;36.77;68.21;;
58251;Laerm;51449;51.676;5.812;2022-10-16T05:34:15;55.85;37.98;71.09;;
58251;Laerm;51449;51.676;5.812;2022-10-16T05:36:37;49.51;36.50;68.54;;
58251;Laerm;51449;51.676;5.812;2022-10-16T05:38:59;59.73;36.80;71.56;;
58251;Laerm;51449;51.676;5.812;2022-10-16T05:41:21;54.86;34.94;67.54;;
58251;Laerm;51449;51.676;5.812;2022-10-16T05:43:45;51.88;35.20;67.16;;
58251;Laerm;51449;51.676;5.812;2022-10-16T05:46:06;53.95;35.52;68.04;;
58251;Laerm;51449;51.676;5.812;2022-10-16T05:48:29;59.11;36.29;76.30;;
58251;Laerm;51449;51.676;5.812;2022-10-16T05:51:07;52.43;35.25;67.50;;
58251;Laerm;51449;51.676;5.812;2022-10-16T05:53:33;51.59;34.37;64.82;;
58251;Laerm;51449;51.676;5.812;2022-10-16T05:55:56;42.90;34.57;57.75;;
58251;Laerm;51449;51.676;5.812;2022-10-16T05:58:18;55.62;35.76;70.21;;
58251;Laerm;51449;51.676;5.812;2022-10-16T06:00:40;53.51;36.34;67.60;;
58251;Laerm;51449;51.676;5.812;2022-10-16T06:03:02;50.95;36.52;68.34;;
58251;Laerm;51449;51.676;5.812;2022-10-16T06:05:25;51.63;35.59;67.57;;
58251;Laerm;51449;51.676;5.812;2022-10-16T06:07:47;55.58;35.68;74.27;;
58251;Laerm;51449;51.676;5.812;2022-10-16T06:10:09;56.71;37.34;72.82;;
58251;Laerm;51449;51.676;5.812;2022-10-16T06:12:31;57.37;37.18;74.05;;
58251;Laerm;51449;51.676;5.812;2022-10-16T06:14:53;58.08;34.80;78.16;;
58251;Laerm;51449;51.676;5.812;2022-10-16T06:17:15;59.60;36.78;75.84;;
58251;Laerm;51449;51.676;5.812;2022-10-16T06:19:37;60.74;36.04;76.22;;
58251;Laerm;51449;51.676;5.812;2022-10-16T06:21:59;56.00;34.39;75.87;;
58251;Laerm;51449;51.676;5.812;2022-10-16T06:24:21;58.76;34.77;76.03;;
58251;Laerm;51449;51.676;5.812;2022-10-16T06:26:43;58.32;37.03;70.24;;
58251;Laerm;51449;51.676;5.812;2022-10-16T06:29:05;60.59;36.63;74.95;;
58251;Laerm;51449;51.676;5.812;2022-10-16T06:31:29;53.74;35.17;71.74;;
58251;Laerm;51449;51.676;5.812;2022-10-16T06:33:53;54.14;35.58;72.91;;
58251;Laerm;51449;51.676;5.812;2022-10-16T06:36:17;59.11;36.00;73.04;;
58251;Laerm;51449;51.676;5.812;2022-10-16T06:38:40;59.89;37.49;78.50;;
58251;Laerm;51449;51.676;5.812;2022-10-16T06:41:03;59.54;36.41;75.14;;
58251;Laerm;51449;51.676;5.812;2022-10-16T06:43:25;61.02;38.26;77.82;;
58251;Laerm;51449;51.676;5.812;2022-10-16T06:45:56;58.60;36.93;73.32;;
58251;Laerm;51449;51.676;5.812;2022-10-16T06:48:18;59.38;37.56;74.41;;
58251;Laerm;51449;51.676;5.812;2022-10-16T06:50:40;62.08;37.66;78.37;;
58251;Laerm;51449;51.676;5.812;2022-10-16T06:53:02;56.54;35.74;71.39;;
58251;Laerm;51449;51.676;5.812;2022-10-16T06:55:24;55.33;36.09;68.19;;
58251;Laerm;51449;51.676;5.812;2022-10-16T06:57:48;63.80;38.63;78.94;;
58251;Laerm;51449;51.676;5.812;2022-10-16T07:00:10;56.00;36.74;68.57;;
58251;Laerm;51449;51.676;5.812;2022-10-16T07:02:32;59.62;36.63;70.34;;
58251;Laerm;51449;51.676;5.812;2022-10-16T07:04:54;51.96;36.39;71.49;;
58251;Laerm;51449;51.676;5.812;2022-10-16T07:07:17;59.74;39.47;70.51;;
58251;Laerm;51449;51.676;5.812;2022-10-16T07:09:40;63.34;39.94;79.53;;
58251;Laerm;51449;51.676;5.812;2022-10-16T07:12:02;61.51;39.12;82.24;;
58251;Laerm;51449;51.676;5.812;2022-10-16T07:14:24;60.45;39.23;71.55;;
58251;Laerm;51449;51.676;5.812;2022-10-16T07:16:48;55.96;38.45;71.05;;
58251;Laerm;51449;51.676;5.812;2022-10-16T07:19:10;61.02;38.93;76.88;;
58251;Laerm;51449;51.676;5.812;2022-10-16T07:21:34;58.65;38.05;76.74;;
58251;Laerm;51449;51.676;5.812;2022-10-16T07:23:59;64.23;38.60;86.45;;
58251;Laerm;51449;51.676;5.812;2022-10-16T07:26:24;60.15;40.39;74.75;;
58251;Laerm;51449;51.676;5.812;2022-10-16T07:28:47;75.95;41.45;96.77;;
58251;Laerm;51449;51.676;5.812;2022-10-16T07:31:12;59.19;40.29;71.65;;
58251;Laerm;51449;51.676;5.812;2022-10-16T07:33:35;63.32;45.98;76.17;;
58251;Laerm;51449;51.676;5.812;2022-10-16T07:35:56;61.43;44.39;73.50;;
58251;Laerm;51449;51.676;5.812;2022-10-16T07:38:21;63.70;39.84;75.23;;
58251;Laerm;51449;51.676;5.812;2022-10-16T07:40:43;55.36;39.93;71.66;;
58251;Laerm;51449;51.676;5.812;2022-10-16T07:43:05;65.70;43.28;83.91;;
58251;Laerm;51449;51.676;5.812;2022-10-16T07:45:27;60.31;39.33;73.93;;
58251;Laerm;51449;51.676;5.812;2022-10-16T07:47:49;60.57;40.46;77.33;;
58251;Laerm;51449;51.676;5.812;2022-10-16T07:50:11;58.60;40.87;69.69;;
58251;Laerm;51449;51.676;5.812;2022-10-16T07:52:32;58.83;43.81;71.76;;
58251;Laerm;51449;51.676;5.812;2022-10-16T07:54:54;59.26;43.01;72.94;;
58251;Laerm;51449;51.676;5.812;2022-10-16T07:57:21;62.33;43.00;75.43;;
58251;Laerm;51449;51.676;5.812;2022-10-16T07:59:43;59.01;41.32;70.44;;
58251;Laerm;51449;51.676;5.812;2022-10-16T08:02:04;59.78;43.33;72.16;;
58251;Laerm;51449;51.676;5.812;2022-10-16T08:04:26;59.37;38.80;71.94;;
58251;Laerm;51449;51.676;5.812;2022-10-16T08:06:48;59.35;39.05;69.28;;
58251;Laerm;51449;51.676;5.812;2022-10-16T08:09:10;59.01;41.69;69.69;;
58251;Laerm;51449;51.676;5.812;2022-10-16T08:11:33;59.83;44.57;69.37;;
58251;Laerm;51449;51.676;5.812;2022-10-16T08:13:55;66.47;42.90;77.24;;
58251;Laerm;51449;51.676;5.812;2022-10-16T08:16:16;58.68;43.64;69.74;;
58251;Laerm;51449;51.676;5.812;2022-10-16T08:18:41;59.63;42.50;69.67;;
58251;Laerm;51449;51.676;5.812;2022-10-16T08:21:05;63.41;40.71;83.64;;
58251;Laerm;51449;51.676;5.812;2022-10-16T08:23:27;57.58;40.93;71.14;;
58251;Laerm;51449;51.676;5.812;2022-10-16T08:25:49;57.25;39.77;69.22;;
58251;Laerm;51449;51.676;5.812;2022-10-16T08:28:11;60.57;40.88;75.86;;
58251;Laerm;51449;51.676;5.812;2022-10-16T08:30:34;58.97;43.99;72.60;;
58251;Laerm;51449;51.676;5.812;2022-10-16T08:32:56;59.21;42.61;69.17;;
58251;Laerm;51449;51.676;5.812;2022-10-16T08:35:19;60.86;48.21;71.73;;
58251;Laerm;51449;51.676;5.812;2022-10-16T08:37:42;60.01;41.27;69.95;;
58251;Laerm;51449;51.676;5.812;2022-10-16T08:40:15;59.95;47.01;68.95;;
58251;Laerm;51449;51.676;5.812;2022-10-16T08:43:12;59.97;47.34;76.98;;
58251;Laerm;51449;51.676;5.812;2022-10-16T08:46:34;60.52;44.22;74.64;;
58251;Laerm;51449;51.676;5.812;2022-10-16T08:49:00;59.26;41.34;70.03;;
58251;Laerm;51449;51.676;5.812;2022-10-16T08:51:28;60.97;45.83;69.65;;
58251;Laerm;51449;51.676;5.812;2022-10-16T08:53:54;57.35;40.38;74.03;;
58251;Laerm;51449;51.676;5.812;2022-10-16T08:56:18;60.66;47.56;70.43;;
58251;Laerm;51449;51.676;5.812;2022-10-16T08:58:40;59.01;40.15;70.37;;
58251;Laerm;51449;51.676;5.812;2022-10-16T09:01:11;61.01;46.63;69.43;;
58251;Laerm;51449;51.676;5.812;2022-10-16T09:07:02;56.66;38.36;66.70;;
58251;Laerm;51449;51.676;5.812;2022-10-16T09:12:20;58.24;40.83;68.35;;
58251;Laerm;51449;51.676;5.812;2022-10-16T09:17:41;56.65;41.31;73.23;;
58251;Laerm;51449;51.676;5.812;2022-10-16T09:20:45;61.43;45.23;74.15;;
58251;Laerm;51449;51.676;5.812;2022-10-16T09:23:14;61.09;43.30;70.15;;
58251;Laerm;51449;51.676;5.812;2022-10-16T09:25:42;60.88;45.87;77.93;;
58251;Laerm;51449;51.676;5.812;2022-10-16T09:28:04;60.30;41.38;72.09;;
58251;Laerm;51449;51.676;5.812;2022-10-16T09:30:29;60.37;42.87;70.80;;
58251;Laerm;51449;51.676;5.812;2022-10-16T09:32:53;58.56;42.26;69.93;;
58251;Laerm;51449;51.676;5.812;2022-10-16T09:35:22;66.98;42.44;82.29;;
58251;Laerm;51449;51.676;5.812;2022-10-16T09:37:52;59.83;46.32;74.49;;
58251;Laerm;51449;51.676;5.812;2022-10-16T09:40:31;61.05;45.01;70.73;;
58251;Laerm;51449;51.676;5.812;2022-10-16T09:48:28;58.25;42.94;69.34;;
58251;Laerm;51449;51.676;5.812;2022-10-16T09:51:04;59.92;42.79;74.50;;
58251;Laerm;51449;51.676;5.812;2022-10-16T09:53:43;59.58;42.65;68.98;;
58251;Laerm;51449;51.676;5.812;2022-10-16T09:56:05;60.13;47.55;71.47;;
58251;Laerm;51449;51.676;5.812;2022-10-16T09:58:33;61.81;45.71;73.66;;
58251;Laerm;51449;51.676;5.812;2022-10-16T10:00:56;58.69;43.09;67.25;;
58251;Laerm;51449;51.676;5.812;2022-10-16T10:03:33;60.83;45.27;72.82;;
58251;Laerm;51449;51.676;5.812;2022-10-16T10:05:56;63.01;45.41;73.25;;
58251;Laerm;51449;51.676;5.812;2022-10-16T10:08:22;58.80;39.52;68.18;;
58251;Laerm;51449;51.676;5.812;2022-10-16T10:10:48;59.94;43.57;72.34;;
58251;Laerm;51449;51.676;5.812;2022-10-16T10:13:22;59.85;44.28;68.58;;
58251;Laerm;51449;51.676;5.812;2022-10-16T10:15:46;58.03;42.70;70.76;;
58251;Laerm;51449;51.676;5.812;2022-10-16T10:18:22;59.96;43.05;70.93;;
58251;Laerm;51449;51.676;5.812;2022-10-16T10:20:45;62.08;45.63;86.29;;
58251;Laerm;51449;51.676;5.812;2022-10-16T10:23:26;62.42;43.96;71.84;;
58251;Laerm;51449;51.676;5.812;2022-10-16T10:31:27;60.95;46.21;71.24;;
58251;Laerm;51449;51.676;5.812;2022-10-16T10:38:46;57.66;42.17;72.96;;
58251;Laerm;51449;51.676;5.812;2022-10-16T10:40:49;58.48;45.54;68.11;;
58251;Laerm;51449;51.676;5.812;2022-10-16T10:44:01;60.73;43.62;72.02;;
58251;Laerm;51449;51.676;5.812;2022-10-16T10:46:36;60.62;38.15;73.43;;
58251;Laerm;51449;51.676;5.812;2022-10-16T11:01:09;59.87;42.25;70.83;;
58251;Laerm;51449;51.676;5.812;2022-10-16T11:06:33;61.86;42.48;75.88;;
58251;Laerm;51449;51.676;5.812;2022-10-16T11:12:12;58.22;40.31;69.04;;
58251;Laerm;51449;51.676;5.812;2022-10-16T11:15:03;59.30;38.82;68.94;;
58251;Laerm;51449;51.676;5.812;2022-10-16T11:17:50;60.51;41.76;72.76;;
58251;Laerm;51449;51.676;5.812;2022-10-16T11:20:32;60.90;43.95;71.25;;
58251;Laerm;51449;51.676;5.812;2022-10-16T11:22:57;58.70;44.24;69.29;;
58251;Laerm;51449;51.676;5.812;2022-10-16T11:25:27;60.34;37.77;68.76;;
58251;Laerm;51449;51.676;5.812;2022-10-16T11:30:39;63.00;39.80;75.49;;
58251;Laerm;51449;51.676;5.812;2022-10-16T11:36:16;69.27;41.82;84.56;;
58251;Laerm;51449;51.676;5.812;2022-10-16T11:46:30;71.03;42.36;86.07;;
58251;Laerm;51449;51.676;5.812;2022-10-16T11:49:15;60.98;45.42;77.16;;
58251;Laerm;51449;51.676;5.812;2022-10-16T11:51:45;60.96;39.04;72.71;;
58251;Laerm;51449;51.676;5.812;2022-10-16T11:54:49;60.46;39.78;68.68;;
58251;Laerm;51449;51.676;5.812;2022-10-16T11:57:21;61.74;41.21;74.32;;
58251;Laerm;51449;51.676;5.812;2022-10-16T12:00:28;60.91;40.59;71.35;;
58251;Laerm;51449;51.676;5.812;2022-10-16T12:03:17;60.76;39.71;74.96;;
58251;Laerm;51449;51.676;5.812;2022-10-16T12:08:43;63.40;43.60;79.22;;
58251;Laerm;51449;51.676;5.812;2022-10-16T12:13:45;60.62;45.73;73.34;;
58251;Laerm;51449;51.676;5.812;2022-10-16T12:18:34;62.44;42.77;76.50;;
58251;Laerm;51449;51.676;5.812;2022-10-16T12:21:00;59.61;38.83;71.23;;
58251;Laerm;51449;51.676;5.812;2022-10-16T12:23:28;61.84;38.02;75.41;;
58251;Laerm;51449;51.676;5.812;2022-10-16T12:25:59;70.09;34.70;85.09;;
58251;Laerm;51449;51.676;5.812;2022-10-16T12:28:30;62.25;37.82;78.06;;
58251;Laerm;51449;51.676;5.812;2022-10-16T12:31:06;65.48;41.41;82.02;;
58251;Laerm;51449;51.676;5.812;2022-10-16T12:33:35;68.09;43.97;86.10;;
58251;Laerm;51449;51.676;5.812;2022-10-16T12:36:02;71.14;42.79;88.42;;
58251;Laerm;51449;51.676;5.812;2022-10-16T12:38:49;61.52;45.26;73.28;;
58251;Laerm;51449;51.676;5.812;2022-10-16T12:41:24;59.80;47.78;69.49;;
58251;Laerm;51449;51.676;5.812;2022-10-16T12:43:47;62.07;51.06;71.63;;
58251;Laerm;51449;51.676;5.812;2022-10-16T12:48:31;64.08;48.12;78.08;;
58251;Laerm;51449;51.676;5.812;2022-10-16T12:51:35;62.19;49.34;71.89;;
58251;Laerm;51449;51.676;5.812;2022-10-16T12:54:18;57.66;46.66;67.77;;
58251;Laerm;51449;51.676;5.812;2022-10-16T12:57:21;59.35;48.63;73.98;;
58251;Laerm;51449;51.676;5.812;2022-10-16T13:02:44;62.85;46.86;74.74;;
58251;Laerm;51449;51.676;5.812;2022-10-16T13:17:11;57.58;35.54;68.77;;
58251;Laerm;51449;51.676;5.812;2022-10-16T13:20:05;59.24;36.78;69.43;;
58251;Laerm;51449;51.676;5.812;2022-10-16T13:23:03;64.49;34.51;77.79;;
58251;Laerm;51449;51.676;5.812;2022-10-16T13:28:31;57.64;37.21;66.72;;
58251;Laerm;51449;51.676;5.812;2022-10-16T13:30:57;56.86;37.92;68.88;;
58251;Laerm;51449;51.676;5.812;2022-10-16T13:33:32;63.50;39.00;79.52;;
58251;Laerm;51449;51.676;5.812;2022-10-16T13:35:57;59.19;35.22;72.32;;
58251;Laerm;51449;51.676;5.812;2022-10-16T13:38:23;56.62;33.47;68.72;;
58251;Laerm;51449;51.676;5.812;2022-10-16T13:41:12;59.49;37.33;71.16;;
58251;Laerm;51449;51.676;5.812;2022-10-16T13:46:06;58.48;36.75;71.06;;
58251;Laerm;51449;51.676;5.812;2022-10-16T13:48:30;59.58;37.76;73.06;;
58251;Laerm;51449;51.676;5.812;2022-10-16T13:51:03;60.69;35.52;72.62;;
58251;Laerm;51449;51.676;5.812;2022-10-16T13:53:26;61.41;37.36;72.59;;
58251;Laerm;51449;51.676;5.812;2022-10-16T13:55:47;60.43;36.82;72.94;;
58251;Laerm;51449;51.676;5.812;2022-10-16T13:58:14;63.03;36.86;78.42;;
58251;Laerm;51449;51.676;5.812;2022-10-16T14:00:36;60.21;34.14;75.32;;
58251;Laerm;51449;51.676;5.812;2022-10-16T14:03:04;57.88;37.51;68.31;;
58251;Laerm;51449;51.676;5.812;2022-10-16T14:05:27;58.12;36.49;72.01;;
58251;Laerm;51449;51.676;5.812;2022-10-16T14:07:51;59.86;34.71;80.84;;
58251;Laerm;51449;51.676;5.812;2022-10-16T14:10:27;61.86;38.02;73.85;;
58251;Laerm;51449;51.676;5.812;2022-10-16T14:13:00;58.45;36.62;67.90;;
58251;Laerm;51449;51.676;5.812;2022-10-16T14:15:23;58.34;33.52;69.88;;
58251;Laerm;51449;51.676;5.812;2022-10-16T14:17:51;62.90;41.02;74.92;;
58251;Laerm;51449;51.676;5.812;2022-10-16T14:20:15;59.78;36.46;71.56;;
58251;Laerm;51449;51.676;5.812;2022-10-16T14:22:40;60.90;39.82;70.07;;
58251;Laerm;51449;51.676;5.812;2022-10-16T14:27:40;58.78;37.82;72.90;;
58251;Laerm;51449;51.676;5.812;2022-10-16T14:30:16;59.43;36.92;67.37;;
58251;Laerm;51449;51.676;5.812;2022-10-16T14:32:41;59.85;39.24;77.45;;
58251;Laerm;51449;51.676;5.812;2022-10-16T14:35:04;59.27;36.95;76.78;;
58251;Laerm;51449;51.676;5.812;2022-10-16T14:37:29;57.65;37.64;68.39;;
58251;Laerm;51449;51.676;5.812;2022-10-16T14:39:54;60.43;36.07;71.45;;
58251;Laerm;51449;51.676;5.812;2022-10-16T14:42:18;59.62;33.14;73.32;;
58251;Laerm;51449;51.676;5.812;2022-10-16T14:44:41;56.84;33.24;72.43;;
58251;Laerm;51449;51.676;5.812;2022-10-16T14:47:09;61.94;47.77;69.09;;
58251;Laerm;51449;51.676;5.812;2022-10-16T14:49:34;60.45;46.40;68.77;;
58251;Laerm;51449;51.676;5.812;2022-10-16T14:51:57;65.78;37.45;89.25;;
58251;Laerm;51449;51.676;5.812;2022-10-16T14:54:19;58.54;36.04;68.18;;
58251;Laerm;51449;51.676;5.812;2022-10-16T14:56:55;59.56;40.09;68.87;;
58251;Laerm;51449;51.676;5.812;2022-10-16T14:59:42;62.87;35.99;81.48;;
58251;Laerm;51449;51.676;5.812;2022-10-16T15:04:47;58.77;36.79;70.59;;
58251;Laerm;51449;51.676;5.812;2022-10-16T15:07:09;54.94;36.64;65.12;;
58251;Laerm;51449;51.676;5.812;2022-10-16T15:09:31;60.01;46.94;71.87;;
58251;Laerm;51449;51.676;5.812;2022-10-16T15:11:53;61.08;48.26;72.47;;
58251;Laerm;51449;51.676;5.812;2022-10-16T15:14:15;59.40;47.23;68.49;;
58251;Laerm;51449;51.676;5.812;2022-10-16T15:16:36;60.62;46.47;86.34;;
58251;Laerm;51449;51.676;5.812;2022-10-16T15:18:58;60.54;42.26;68.94;;
58251;Laerm;51449;51.676;5.812;2022-10-16T15:21:26;58.50;35.30;70.79;;
58251;Laerm;51449;51.676;5.812;2022-10-16T15:23:49;59.24;34.47;70.00;;
58251;Laerm;51449;51.676;5.812;2022-10-16T15:26:12;60.07;34.76;69.76;;